sensor_id;sensor_type;location;lat;lon;timestamp;P1;durP1;ratioP1;P2;durP2;ratioP2
12425;SDS011;6277;49.824;9.562;2023-04-03T00:00:25;2.58;;;1.52;;
12425;SDS011;6277;49.824;9.562;2023-04-03T00:02:50;2.05;;;1.40;;
12425;SDS011;6277;49.824;9.562;2023-04-03T00:05:16;3.65;;;1.42;;
12425;SDS011;6277;49.824;9.562;2023-04-03T00:07:42;3.10;;;1.40;;
12425;SDS011;6277;49.824;9.562;2023-04-03T00:10:07;2.83;;;1.20;;
12425;SDS011;6277;49.824;9.562;2023-04-03T00:12:33;2.85;;;1.30;;
12425;SDS011;6277;49.824;9.562;2023-04-03T00:14:59;2.10;;;1.35;;
12425;SDS011;6277;49.824;9.562;2023-04-03T00:17:24;2.38;;;1.30;;
12425;SDS011;6277;49.824;9.562;2023-04-03T00:19:50;2.28;;;1.45;;
12425;SDS011;6277;49.824;9.562;2023-04-03T00:22:16;2.88;;;1.50;;
12425;SDS011;6277;49.824;9.562;2023-04-03T00:24:41;1.92;;;1.20;;
12425;SDS011;6277;49.824;9.562;2023-04-03T00:27:07;2.30;;;1.55;;
12425;SDS011;6277;49.824;9.562;2023-04-03T00:29:32;3.30;;;1.45;;
12425;SDS011;6277;49.824;9.562;2023-04-03T00:31:58;2.65;;;1.23;;
12425;SDS011;6277;49.824;9.562;2023-04-03T00:34:24;2.65;;;1.30;;
12425;SDS011;6277;49.824;9.562;2023-04-03T00:36:50;2.30;;;1.58;;
12425;SDS011;6277;49.824;9.562;2023-04-03T00:39:16;2.45;;;1.35;;
12425;SDS011;6277;49.824;9.562;2023-04-03T00:41:42;1.40;;;1.15;;
12425;SDS011;6277;49.824;9.562;2023-04-03T00:44:20;2.67;;;1.30;;
12425;SDS011;6277;49.824;9.562;2023-04-03T00:46:58;2.35;;;1.30;;
12425;SDS011;6277;49.824;9.562;2023-04-03T00:49:24;2.10;;;1.42;;
12425;SDS011;6277;49.824;9.562;2023-04-03T00:51:51;1.83;;;1.35;;
12425;SDS011;6277;49.824;9.562;2023-04-03T00:54:17;1.55;;;1.23;;
12425;SDS011;6277;49.824;9.562;2023-04-03T00:56:43;3.15;;;1.55;;
12425;SDS011;6277;49.824;9.562;2023-04-03T00:59:13;2.53;;;1.20;;
12425;SDS011;6277;49.824;9.562;2023-04-03T01:04:26;2.22;;;1.65;;
12425;SDS011;6277;49.824;9.562;2023-04-03T01:06:57;3.35;;;1.27;;
12425;SDS011;6277;49.824;9.562;2023-04-03T01:09:26;1.77;;;1.25;;
12425;SDS011;6277;49.824;9.562;2023-04-03T01:11:53;2.10;;;1.38;;
12425;SDS011;6277;49.824;9.562;2023-04-03T01:14:19;1.88;;;1.25;;
12425;SDS011;6277;49.824;9.562;2023-04-03T01:16:53;2.70;;;1.50;;
12425;SDS011;6277;49.824;9.562;2023-04-03T01:19:19;3.20;;;1.63;;
12425;SDS011;6277;49.824;9.562;2023-04-03T01:21:52;1.90;;;1.35;;
12425;SDS011;6277;49.824;9.562;2023-04-03T01:24:32;2.38;;;1.30;;
12425;SDS011;6277;49.824;9.562;2023-04-03T01:26:59;2.40;;;1.50;;
12425;SDS011;6277;49.824;9.562;2023-04-03T01:29:27;1.40;;;1.17;;
12425;SDS011;6277;49.824;9.562;2023-04-03T01:31:54;2.63;;;1.23;;
12425;SDS011;6277;49.824;9.562;2023-04-03T01:34:21;2.10;;;1.30;;
12425;SDS011;6277;49.824;9.562;2023-04-03T01:36:47;2.30;;;1.20;;
12425;SDS011;6277;49.824;9.562;2023-04-03T01:39:13;1.48;;;1.30;;
12425;SDS011;6277;49.824;9.562;2023-04-03T01:41:39;2.53;;;1.20;;
12425;SDS011;6277;49.824;9.562;2023-04-03T01:44:05;1.45;;;1.25;;
12425;SDS011;6277;49.824;9.562;2023-04-03T01:46:31;2.90;;;1.33;;
12425;SDS011;6277;49.824;9.562;2023-04-03T01:48:56;1.85;;;1.70;;
12425;SDS011;6277;49.824;9.562;2023-04-03T01:51:22;1.98;;;1.25;;
12425;SDS011;6277;49.824;9.562;2023-04-03T01:53:47;1.83;;;1.50;;
12425;SDS011;6277;49.824;9.562;2023-04-03T01:56:13;1.50;;;1.30;;
12425;SDS011;6277;49.824;9.562;2023-04-03T01:58:38;2.50;;;1.60;;
12425;SDS011;6277;49.824;9.562;2023-04-03T02:01:04;2.58;;;1.70;;
12425;SDS011;6277;49.824;9.562;2023-04-03T02:03:30;2.20;;;1.65;;
12425;SDS011;6277;49.824;9.562;2023-04-03T02:05:56;4.95;;;2.08;;
12425;SDS011;6277;49.824;9.562;2023-04-03T02:08:21;1.83;;;1.52;;
12425;SDS011;6277;49.824;9.562;2023-04-03T02:10:47;2.85;;;1.63;;
12425;SDS011;6277;49.824;9.562;2023-04-03T02:13:15;1.67;;;1.52;;
12425;SDS011;6277;49.824;9.562;2023-04-03T02:15:40;2.83;;;1.67;;
12425;SDS011;6277;49.824;9.562;2023-04-03T02:18:06;2.25;;;1.67;;
12425;SDS011;6277;49.824;9.562;2023-04-03T02:20:32;3.95;;;1.70;;
12425;SDS011;6277;49.824;9.562;2023-04-03T02:22:58;2.88;;;1.67;;
12425;SDS011;6277;49.824;9.562;2023-04-03T02:25:24;3.60;;;1.60;;
12425;SDS011;6277;49.824;9.562;2023-04-03T02:27:49;2.15;;;1.50;;
12425;SDS011;6277;49.824;9.562;2023-04-03T02:30:15;2.17;;;1.60;;
12425;SDS011;6277;49.824;9.562;2023-04-03T02:32:41;3.33;;;1.48;;
12425;SDS011;6277;49.824;9.562;2023-04-03T02:35:07;2.67;;;1.52;;
12425;SDS011;6277;49.824;9.562;2023-04-03T02:37:33;2.60;;;1.40;;
12425;SDS011;6277;49.824;9.562;2023-04-03T02:39:59;1.48;;;1.38;;
12425;SDS011;6277;49.824;9.562;2023-04-03T02:42:25;2.70;;;1.50;;
12425;SDS011;6277;49.824;9.562;2023-04-03T02:44:51;3.67;;;1.60;;
12425;SDS011;6277;49.824;9.562;2023-04-03T02:47:16;3.33;;;1.60;;
12425;SDS011;6277;49.824;9.562;2023-04-03T02:49:42;2.70;;;1.70;;
12425;SDS011;6277;49.824;9.562;2023-04-03T02:52:09;1.70;;;1.60;;
12425;SDS011;6277;49.824;9.562;2023-04-03T02:54:35;2.75;;;2.08;;
12425;SDS011;6277;49.824;9.562;2023-04-03T02:57:01;5.25;;;2.88;;
12425;SDS011;6277;49.824;9.562;2023-04-03T02:59:26;3.95;;;2.40;;
12425;SDS011;6277;49.824;9.562;2023-04-03T03:01:52;3.22;;;2.10;;
12425;SDS011;6277;49.824;9.562;2023-04-03T03:04:18;4.22;;;2.22;;
12425;SDS011;6277;49.824;9.562;2023-04-03T03:06:43;2.60;;;1.98;;
12425;SDS011;6277;49.824;9.562;2023-04-03T03:09:09;3.25;;;2.00;;
12425;SDS011;6277;49.824;9.562;2023-04-03T03:11:35;2.00;;;1.70;;
12425;SDS011;6277;49.824;9.562;2023-04-03T03:14:00;2.22;;;1.67;;
12425;SDS011;6277;49.824;9.562;2023-04-03T03:16:26;3.55;;;1.77;;
12425;SDS011;6277;49.824;9.562;2023-04-03T03:18:51;2.17;;;1.85;;
12425;SDS011;6277;49.824;9.562;2023-04-03T03:21:17;2.33;;;1.77;;
12425;SDS011;6277;49.824;9.562;2023-04-03T03:23:42;2.58;;;1.65;;
12425;SDS011;6277;49.824;9.562;2023-04-03T03:26:09;3.00;;;1.83;;
12425;SDS011;6277;49.824;9.562;2023-04-03T03:28:35;3.33;;;1.70;;
12425;SDS011;6277;49.824;9.562;2023-04-03T03:31:02;2.70;;;1.70;;
12425;SDS011;6277;49.824;9.562;2023-04-03T03:33:29;2.53;;;1.75;;
12425;SDS011;6277;49.824;9.562;2023-04-03T03:35:54;2.03;;;1.60;;
12425;SDS011;6277;49.824;9.562;2023-04-03T03:38:21;3.22;;;1.77;;
12425;SDS011;6277;49.824;9.562;2023-04-03T03:40:47;2.55;;;1.75;;
12425;SDS011;6277;49.824;9.562;2023-04-03T03:43:13;3.00;;;1.67;;
12425;SDS011;6277;49.824;9.562;2023-04-03T03:45:39;4.40;;;1.80;;
12425;SDS011;6277;49.824;9.562;2023-04-03T03:48:05;3.22;;;1.77;;
12425;SDS011;6277;49.824;9.562;2023-04-03T03:50:30;2.13;;;1.50;;
12425;SDS011;6277;49.824;9.562;2023-04-03T03:52:56;3.50;;;1.70;;
12425;SDS011;6277;49.824;9.562;2023-04-03T03:55:22;2.30;;;1.63;;
12425;SDS011;6277;49.824;9.562;2023-04-03T03:57:47;5.60;;;1.80;;
12425;SDS011;6277;49.824;9.562;2023-04-03T04:00:13;4.47;;;1.75;;
12425;SDS011;6277;49.824;9.562;2023-04-03T04:02:39;2.92;;;1.58;;
12425;SDS011;6277;49.824;9.562;2023-04-03T04:05:05;2.22;;;1.42;;
12425;SDS011;6277;49.824;9.562;2023-04-03T04:07:31;2.67;;;1.40;;
12425;SDS011;6277;49.824;9.562;2023-04-03T04:09:56;5.07;;;2.00;;
12425;SDS011;6277;49.824;9.562;2023-04-03T04:12:22;3.22;;;1.30;;
12425;SDS011;6277;49.824;9.562;2023-04-03T04:14:47;3.40;;;1.30;;
12425;SDS011;6277;49.824;9.562;2023-04-03T04:17:13;2.50;;;1.60;;
12425;SDS011;6277;49.824;9.562;2023-04-03T04:19:39;2.53;;;1.40;;
12425;SDS011;6277;49.824;9.562;2023-04-03T04:22:05;1.73;;;1.30;;
12425;SDS011;6277;49.824;9.562;2023-04-03T04:24:30;2.30;;;1.38;;
12425;SDS011;6277;49.824;9.562;2023-04-03T04:26:56;2.53;;;1.23;;
12425;SDS011;6277;49.824;9.562;2023-04-03T04:29:21;3.47;;;1.27;;
12425;SDS011;6277;49.824;9.562;2023-04-03T04:31:47;1.90;;;1.10;;
12425;SDS011;6277;49.824;9.562;2023-04-03T04:34:12;2.10;;;1.30;;
12425;SDS011;6277;49.824;9.562;2023-04-03T04:36:38;2.75;;;1.25;;
12425;SDS011;6277;49.824;9.562;2023-04-03T04:39:04;3.65;;;1.42;;
12425;SDS011;6277;49.824;9.562;2023-04-03T04:41:30;3.08;;;1.17;;
12425;SDS011;6277;49.824;9.562;2023-04-03T04:43:56;3.13;;;1.20;;
12425;SDS011;6277;49.824;9.562;2023-04-03T04:46:22;4.22;;;1.70;;
12425;SDS011;6277;49.824;9.562;2023-04-03T04:48:47;2.85;;;1.30;;
12425;SDS011;6277;49.824;9.562;2023-04-03T04:51:13;2.72;;;1.30;;
12425;SDS011;6277;49.824;9.562;2023-04-03T04:53:39;2.30;;;1.30;;
12425;SDS011;6277;49.824;9.562;2023-04-03T04:56:05;2.53;;;1.20;;
12425;SDS011;6277;49.824;9.562;2023-04-03T04:58:31;2.40;;;1.20;;
12425;SDS011;6277;49.824;9.562;2023-04-03T05:01:00;2.83;;;1.30;;
12425;SDS011;6277;49.824;9.562;2023-04-03T05:03:30;2.63;;;1.38;;
12425;SDS011;6277;49.824;9.562;2023-04-03T05:05:56;2.42;;;1.10;;
12425;SDS011;6277;49.824;9.562;2023-04-03T05:08:22;2.75;;;1.27;;
12425;SDS011;6277;49.824;9.562;2023-04-03T05:10:47;3.15;;;1.60;;
12425;SDS011;6277;49.824;9.562;2023-04-03T05:13:13;1.85;;;1.05;;
12425;SDS011;6277;49.824;9.562;2023-04-03T05:15:39;4.78;;;1.50;;
12425;SDS011;6277;49.824;9.562;2023-04-03T05:18:05;2.20;;;1.30;;
12425;SDS011;6277;49.824;9.562;2023-04-03T05:20:31;2.75;;;1.20;;
12425;SDS011;6277;49.824;9.562;2023-04-03T05:22:57;4.50;;;1.45;;
12425;SDS011;6277;49.824;9.562;2023-04-03T05:25:23;3.35;;;1.40;;
12425;SDS011;6277;49.824;9.562;2023-04-03T05:27:48;3.47;;;1.20;;
12425;SDS011;6277;49.824;9.562;2023-04-03T05:30:14;2.72;;;1.05;;
12425;SDS011;6277;49.824;9.562;2023-04-03T05:32:40;2.60;;;1.45;;
12425;SDS011;6277;49.824;9.562;2023-04-03T05:35:06;2.33;;;1.27;;
12425;SDS011;6277;49.824;9.562;2023-04-03T05:37:32;2.55;;;1.27;;
12425;SDS011;6277;49.824;9.562;2023-04-03T05:39:58;3.92;;;1.40;;
12425;SDS011;6277;49.824;9.562;2023-04-03T05:42:23;3.15;;;1.38;;
12425;SDS011;6277;49.824;9.562;2023-04-03T05:44:49;5.20;;;1.42;;
12425;SDS011;6277;49.824;9.562;2023-04-03T05:47:15;1.92;;;1.10;;
12425;SDS011;6277;49.824;9.562;2023-04-03T05:49:41;3.22;;;1.65;;
12425;SDS011;6277;49.824;9.562;2023-04-03T05:52:26;2.60;;;1.10;;
12425;SDS011;6277;49.824;9.562;2023-04-03T05:54:53;2.58;;;1.30;;
12425;SDS011;6277;49.824;9.562;2023-04-03T05:57:19;3.20;;;1.35;;
12425;SDS011;6277;49.824;9.562;2023-04-03T05:59:45;3.03;;;1.40;;
12425;SDS011;6277;49.824;9.562;2023-04-03T06:02:13;4.72;;;1.65;;
12425;SDS011;6277;49.824;9.562;2023-04-03T06:04:48;3.20;;;1.45;;
12425;SDS011;6277;49.824;9.562;2023-04-03T06:07:15;2.35;;;1.35;;
12425;SDS011;6277;49.824;9.562;2023-04-03T06:09:43;6.15;;;1.70;;
12425;SDS011;6277;49.824;9.562;2023-04-03T06:12:09;5.50;;;1.70;;
12425;SDS011;6277;49.824;9.562;2023-04-03T06:14:36;3.25;;;1.40;;
12425;SDS011;6277;49.824;9.562;2023-04-03T06:17:02;2.70;;;1.45;;
12425;SDS011;6277;49.824;9.562;2023-04-03T06:19:28;2.63;;;1.30;;
12425;SDS011;6277;49.824;9.562;2023-04-03T06:21:53;3.15;;;1.50;;
12425;SDS011;6277;49.824;9.562;2023-04-03T06:24:20;2.90;;;1.58;;
12425;SDS011;6277;49.824;9.562;2023-04-03T06:26:47;2.83;;;1.60;;
12425;SDS011;6277;49.824;9.562;2023-04-03T06:29:13;3.17;;;1.60;;
12425;SDS011;6277;49.824;9.562;2023-04-03T06:31:39;3.88;;;1.88;;
12425;SDS011;6277;49.824;9.562;2023-04-03T06:34:05;3.90;;;1.60;;
12425;SDS011;6277;49.824;9.562;2023-04-03T06:36:32;2.40;;;1.70;;
12425;SDS011;6277;49.824;9.562;2023-04-03T06:38:58;3.38;;;1.70;;
12425;SDS011;6277;49.824;9.562;2023-04-03T06:41:23;3.97;;;1.60;;
12425;SDS011;6277;49.824;9.562;2023-04-03T06:43:51;3.10;;;1.35;;
12425;SDS011;6277;49.824;9.562;2023-04-03T06:46:17;3.80;;;1.80;;
12425;SDS011;6277;49.824;9.562;2023-04-03T06:48:45;3.47;;;1.90;;
12425;SDS011;6277;49.824;9.562;2023-04-03T06:51:21;3.00;;;1.50;;
12425;SDS011;6277;49.824;9.562;2023-04-03T06:53:47;3.17;;;1.58;;
12425;SDS011;6277;49.824;9.562;2023-04-03T06:56:14;2.65;;;1.58;;
12425;SDS011;6277;49.824;9.562;2023-04-03T06:58:40;2.65;;;1.52;;
12425;SDS011;6277;49.824;9.562;2023-04-03T07:01:06;2.28;;;1.60;;
12425;SDS011;6277;49.824;9.562;2023-04-03T07:03:34;3.42;;;1.50;;
12425;SDS011;6277;49.824;9.562;2023-04-03T07:06:00;3.67;;;1.80;;
12425;SDS011;6277;49.824;9.562;2023-04-03T07:08:26;5.03;;;1.67;;
12425;SDS011;6277;49.824;9.562;2023-04-03T07:10:51;2.70;;;1.50;;
12425;SDS011;6277;49.824;9.562;2023-04-03T07:13:17;4.15;;;1.60;;
12425;SDS011;6277;49.824;9.562;2023-04-03T07:15:43;3.17;;;1.60;;
12425;SDS011;6277;49.824;9.562;2023-04-03T07:18:09;3.42;;;1.63;;
12425;SDS011;6277;49.824;9.562;2023-04-03T07:20:34;4.50;;;1.98;;
12425;SDS011;6277;49.824;9.562;2023-04-03T07:23:00;2.05;;;1.45;;
12425;SDS011;6277;49.824;9.562;2023-04-03T07:25:27;4.18;;;1.70;;
12425;SDS011;6277;49.824;9.562;2023-04-03T07:27:53;3.15;;;1.80;;
12425;SDS011;6277;49.824;9.562;2023-04-03T07:30:19;3.13;;;1.70;;
12425;SDS011;6277;49.824;9.562;2023-04-03T07:32:45;3.25;;;1.60;;
12425;SDS011;6277;49.824;9.562;2023-04-03T07:35:11;3.15;;;1.70;;
12425;SDS011;6277;49.824;9.562;2023-04-03T07:37:37;3.45;;;1.60;;
12425;SDS011;6277;49.824;9.562;2023-04-03T07:40:02;2.92;;;1.45;;
12425;SDS011;6277;49.824;9.562;2023-04-03T07:42:29;4.30;;;1.70;;
12425;SDS011;6277;49.824;9.562;2023-04-03T07:44:55;5.03;;;1.73;;
12425;SDS011;6277;49.824;9.562;2023-04-03T07:47:21;3.33;;;1.70;;
12425;SDS011;6277;49.824;9.562;2023-04-03T07:49:47;3.25;;;1.40;;
12425;SDS011;6277;49.824;9.562;2023-04-03T07:52:13;2.40;;;1.38;;
12425;SDS011;6277;49.824;9.562;2023-04-03T07:54:40;2.55;;;1.65;;
12425;SDS011;6277;49.824;9.562;2023-04-03T07:57:06;4.13;;;1.65;;
12425;SDS011;6277;49.824;9.562;2023-04-03T07:59:32;2.90;;;1.80;;
12425;SDS011;6277;49.824;9.562;2023-04-03T08:01:58;2.30;;;1.48;;
12425;SDS011;6277;49.824;9.562;2023-04-03T08:04:23;2.75;;;1.70;;
12425;SDS011;6277;49.824;9.562;2023-04-03T08:06:50;3.42;;;1.63;;
12425;SDS011;6277;49.824;9.562;2023-04-03T08:09:17;2.55;;;1.30;;
12425;SDS011;6277;49.824;9.562;2023-04-03T08:11:43;3.28;;;1.77;;
12425;SDS011;6277;49.824;9.562;2023-04-03T08:14:09;3.13;;;1.58;;
12425;SDS011;6277;49.824;9.562;2023-04-03T08:16:40;3.88;;;1.60;;
12425;SDS011;6277;49.824;9.562;2023-04-03T08:19:06;3.38;;;1.40;;
12425;SDS011;6277;49.824;9.562;2023-04-03T08:21:32;3.60;;;1.70;;
12425;SDS011;6277;49.824;9.562;2023-04-03T08:23:58;3.58;;;1.40;;
12425;SDS011;6277;49.824;9.562;2023-04-03T08:26:23;2.40;;;1.27;;
12425;SDS011;6277;49.824;9.562;2023-04-03T08:28:51;2.88;;;1.40;;
12425;SDS011;6277;49.824;9.562;2023-04-03T08:31:17;4.13;;;1.77;;
12425;SDS011;6277;49.824;9.562;2023-04-03T08:33:44;2.95;;;1.50;;
12425;SDS011;6277;49.824;9.562;2023-04-03T08:36:20;2.67;;;1.35;;
12425;SDS011;6277;49.824;9.562;2023-04-03T08:38:51;4.22;;;1.63;;
12425;SDS011;6277;49.824;9.562;2023-04-03T08:49:44;2.60;;;1.17;;
12425;SDS011;6277;49.824;9.562;2023-04-03T08:52:36;1.90;;;1.20;;
12425;SDS011;6277;49.824;9.562;2023-04-03T08:55:47;5.00;;;1.30;;
12425;SDS011;6277;49.824;9.562;2023-04-03T08:58:03;3.67;;;1.30;;
12425;SDS011;6277;49.824;9.562;2023-04-03T09:00:37;4.30;;;1.40;;
12425;SDS011;6277;49.824;9.562;2023-04-03T09:03:14;2.50;;;1.30;;
12425;SDS011;6277;49.824;9.562;2023-04-03T09:05:49;2.45;;;1.17;;
12425;SDS011;6277;49.824;9.562;2023-04-03T09:08:23;2.08;;;1.40;;
12425;SDS011;6277;49.824;9.562;2023-04-03T09:10:53;2.63;;;1.27;;
12425;SDS011;6277;49.824;9.562;2023-04-03T09:16:20;1.70;;;1.10;;
12425;SDS011;6277;49.824;9.562;2023-04-03T09:19:08;3.30;;;1.42;;
12425;SDS011;6277;49.824;9.562;2023-04-03T09:21:42;3.72;;;1.30;;
12425;SDS011;6277;49.824;9.562;2023-04-03T09:24:09;2.08;;;1.30;;
12425;SDS011;6277;49.824;9.562;2023-04-03T09:26:53;2.47;;;1.30;;
12425;SDS011;6277;49.824;9.562;2023-04-03T09:29:24;3.90;;;1.60;;
12425;SDS011;6277;49.824;9.562;2023-04-03T09:32:00;3.80;;;1.30;;
12425;SDS011;6277;49.824;9.562;2023-04-03T09:34:29;3.35;;;1.40;;
12425;SDS011;6277;49.824;9.562;2023-04-03T09:37:00;3.17;;;1.33;;
12425;SDS011;6277;49.824;9.562;2023-04-03T09:39:31;2.45;;;1.30;;
12425;SDS011;6277;49.824;9.562;2023-04-03T09:42:15;1.83;;;1.20;;
12425;SDS011;6277;49.824;9.562;2023-04-03T09:44:57;2.53;;;1.30;;
12425;SDS011;6277;49.824;9.562;2023-04-03T09:47:25;4.10;;;2.00;;
12425;SDS011;6277;49.824;9.562;2023-04-03T09:50:09;3.20;;;1.50;;
12425;SDS011;6277;49.824;9.562;2023-04-03T09:52:47;2.10;;;1.45;;
12425;SDS011;6277;49.824;9.562;2023-04-03T09:57:43;2.25;;;1.30;;
12425;SDS011;6277;49.824;9.562;2023-04-03T10:03:02;1.48;;;1.02;;
12425;SDS011;6277;49.824;9.562;2023-04-03T10:05:36;1.63;;;1.30;;
12425;SDS011;6277;49.824;9.562;2023-04-03T10:08:23;1.90;;;1.10;;
12425;SDS011;6277;49.824;9.562;2023-04-03T10:11:12;3.08;;;1.30;;
12425;SDS011;6277;49.824;9.562;2023-04-03T10:14:16;2.15;;;1.25;;
12425;SDS011;6277;49.824;9.562;2023-04-03T10:16:41;2.15;;;1.15;;
12425;SDS011;6277;49.824;9.562;2023-04-03T10:22:00;2.65;;;1.38;;
12425;SDS011;6277;49.824;9.562;2023-04-03T10:24:36;1.60;;;1.10;;
12425;SDS011;6277;49.824;9.562;2023-04-03T10:27:31;2.95;;;1.33;;
12425;SDS011;6277;49.824;9.562;2023-04-03T10:30:18;2.47;;;1.30;;
12425;SDS011;6277;49.824;9.562;2023-04-03T10:44:20;2.80;;;1.20;;
12425;SDS011;6277;49.824;9.562;2023-04-03T10:47:13;3.00;;;1.45;;
12425;SDS011;6277;49.824;9.562;2023-04-03T10:50:00;1.60;;;0.90;;
12425;SDS011;6277;49.824;9.562;2023-04-03T10:55:31;1.77;;;0.90;;
12425;SDS011;6277;49.824;9.562;2023-04-03T10:58:11;3.30;;;1.20;;
12425;SDS011;6277;49.824;9.562;2023-04-03T11:00:47;2.05;;;0.93;;
12425;SDS011;6277;49.824;9.562;2023-04-03T11:05:49;2.70;;;1.20;;
12425;SDS011;6277;49.824;9.562;2023-04-03T11:11:20;1.35;;;0.90;;
12425;SDS011;6277;49.824;9.562;2023-04-03T11:16:27;1.67;;;1.02;;
12425;SDS011;6277;49.824;9.562;2023-04-03T11:18:59;1.63;;;1.17;;
12425;SDS011;6277;49.824;9.562;2023-04-03T11:21:37;2.25;;;1.25;;
12425;SDS011;6277;49.824;9.562;2023-04-03T11:24:13;1.70;;;1.17;;
12425;SDS011;6277;49.824;9.562;2023-04-03T11:26:45;2.03;;;1.17;;
12425;SDS011;6277;49.824;9.562;2023-04-03T11:29:14;1.83;;;0.90;;
12425;SDS011;6277;49.824;9.562;2023-04-03T11:34:44;2.30;;;1.10;;
12425;SDS011;6277;49.824;9.562;2023-04-03T11:40:36;2.25;;;1.33;;
12425;SDS011;6277;49.824;9.562;2023-04-03T11:42:49;1.55;;;1.10;;
12425;SDS011;6277;49.824;9.562;2023-04-03T11:47:52;4.22;;;1.77;;
12425;SDS011;6277;49.824;9.562;2023-04-03T12:16:28;1.80;;;0.95;;
12425;SDS011;6277;49.824;9.562;2023-04-03T12:32:06;1.15;;;0.55;;
12425;SDS011;6277;49.824;9.562;2023-04-03T12:34:53;1.55;;;0.70;;
12425;SDS011;6277;49.824;9.562;2023-04-03T12:37:36;0.90;;;0.60;;
12425;SDS011;6277;49.824;9.562;2023-04-03T12:42:43;1.20;;;0.60;;
12425;SDS011;6277;49.824;9.562;2023-04-03T12:45:26;2.45;;;1.17;;
12425;SDS011;6277;49.824;9.562;2023-04-03T12:47:53;1.77;;;1.02;;
12425;SDS011;6277;49.824;9.562;2023-04-03T12:50:21;2.05;;;0.82;;
12425;SDS011;6277;49.824;9.562;2023-04-03T12:53:35;2.15;;;0.85;;
12425;SDS011;6277;49.824;9.562;2023-04-03T12:55:42;1.38;;;0.63;;
12425;SDS011;6277;49.824;9.562;2023-04-03T12:58:15;1.45;;;0.80;;
12425;SDS011;6277;49.824;9.562;2023-04-03T13:00:44;1.42;;;0.70;;
12425;SDS011;6277;49.824;9.562;2023-04-03T13:03:23;1.10;;;0.70;;
12425;SDS011;6277;49.824;9.562;2023-04-03T13:05:51;1.33;;;0.70;;
12425;SDS011;6277;49.824;9.562;2023-04-03T13:08:19;1.90;;;0.60;;
12425;SDS011;6277;49.824;9.562;2023-04-03T13:10:47;1.25;;;0.60;;
12425;SDS011;6277;49.824;9.562;2023-04-03T13:13:25;1.60;;;0.70;;
12425;SDS011;6277;49.824;9.562;2023-04-03T13:15:51;1.48;;;0.65;;
12425;SDS011;6277;49.824;9.562;2023-04-03T13:18:21;1.20;;;0.60;;
12425;SDS011;6277;49.824;9.562;2023-04-03T13:20:47;1.30;;;0.75;;
12425;SDS011;6277;49.824;9.562;2023-04-03T13:23:13;1.38;;;0.70;;
12425;SDS011;6277;49.824;9.562;2023-04-03T13:25:45;0.82;;;0.60;;
12425;SDS011;6277;49.824;9.562;2023-04-03T13:28:13;2.33;;;0.70;;
12425;SDS011;6277;49.824;9.562;2023-04-03T13:30:46;1.08;;;0.70;;
12425;SDS011;6277;49.824;9.562;2023-04-03T13:33:22;0.52;;;0.50;;
12425;SDS011;6277;49.824;9.562;2023-04-03T13:36:26;1.27;;;0.57;;
12425;SDS011;6277;49.824;9.562;2023-04-03T13:38:58;1.17;;;0.63;;
12425;SDS011;6277;49.824;9.562;2023-04-03T13:41:31;1.02;;;0.80;;
12425;SDS011;6277;49.824;9.562;2023-04-03T13:44:14;1.63;;;0.70;;
12425;SDS011;6277;49.824;9.562;2023-04-03T13:46:46;1.88;;;0.65;;
12425;SDS011;6277;49.824;9.562;2023-04-03T13:49:38;1.73;;;0.70;;
12425;SDS011;6277;49.824;9.562;2023-04-03T13:52:24;1.75;;;0.60;;
12425;SDS011;6277;49.824;9.562;2023-04-03T13:54:55;1.40;;;0.70;;
12425;SDS011;6277;49.824;9.562;2023-04-03T13:57:23;1.27;;;0.77;;
12425;SDS011;6277;49.824;9.562;2023-04-03T13:59:49;1.80;;;0.68;;
12425;SDS011;6277;49.824;9.562;2023-04-03T14:02:26;1.83;;;0.80;;
12425;SDS011;6277;49.824;9.562;2023-04-03T14:04:58;2.03;;;0.95;;
12425;SDS011;6277;49.824;9.562;2023-04-03T14:07:26;1.15;;;0.80;;
12425;SDS011;6277;49.824;9.562;2023-04-03T14:09:52;2.15;;;1.00;;
12425;SDS011;6277;49.824;9.562;2023-04-03T14:12:25;2.15;;;0.75;;
12425;SDS011;6277;49.824;9.562;2023-04-03T14:14:59;1.95;;;0.70;;
12425;SDS011;6277;49.824;9.562;2023-04-03T14:17:25;1.65;;;0.70;;
12425;SDS011;6277;49.824;9.562;2023-04-03T14:19:52;2.13;;;0.63;;
12425;SDS011;6277;49.824;9.562;2023-04-03T14:22:20;1.08;;;0.60;;
12425;SDS011;6277;49.824;9.562;2023-04-03T14:24:49;1.00;;;0.60;;
12425;SDS011;6277;49.824;9.562;2023-04-03T14:27:22;1.50;;;0.70;;
12425;SDS011;6277;49.824;9.562;2023-04-03T14:29:54;1.58;;;0.70;;
12425;SDS011;6277;49.824;9.562;2023-04-03T14:32:21;1.00;;;0.70;;
12425;SDS011;6277;49.824;9.562;2023-04-03T14:34:49;1.45;;;0.70;;
12425;SDS011;6277;49.824;9.562;2023-04-03T14:37:20;2.45;;;0.77;;
12425;SDS011;6277;49.824;9.562;2023-04-03T14:39:47;1.85;;;0.82;;
12425;SDS011;6277;49.824;9.562;2023-04-03T14:42:15;1.27;;;0.80;;
12425;SDS011;6277;49.824;9.562;2023-04-03T14:44:43;2.00;;;0.93;;
12425;SDS011;6277;49.824;9.562;2023-04-03T14:47:10;1.08;;;0.73;;
12425;SDS011;6277;49.824;9.562;2023-04-03T14:49:41;1.42;;;0.90;;
12425;SDS011;6277;49.824;9.562;2023-04-03T14:52:10;1.70;;;0.60;;
12425;SDS011;6277;49.824;9.562;2023-04-03T14:54:43;1.73;;;0.82;;
12425;SDS011;6277;49.824;9.562;2023-04-03T14:57:09;1.98;;;1.00;;
12425;SDS011;6277;49.824;9.562;2023-04-03T14:59:39;3.00;;;1.30;;
12425;SDS011;6277;49.824;9.562;2023-04-03T15:04:54;2.00;;;1.20;;
12425;SDS011;6277;49.824;9.562;2023-04-03T15:07:21;2.25;;;1.02;;
12425;SDS011;6277;49.824;9.562;2023-04-03T15:09:47;1.75;;;0.90;;
12425;SDS011;6277;49.824;9.562;2023-04-03T15:12:13;2.55;;;1.00;;
12425;SDS011;6277;49.824;9.562;2023-04-03T15:14:38;2.50;;;0.90;;
12425;SDS011;6277;49.824;9.562;2023-04-03T15:17:04;1.10;;;0.90;;
12425;SDS011;6277;49.824;9.562;2023-04-03T15:19:35;2.25;;;0.93;;
12425;SDS011;6277;49.824;9.562;2023-04-03T15:22:03;1.50;;;1.00;;
12425;SDS011;6277;49.824;9.562;2023-04-03T15:24:28;1.85;;;1.00;;
12425;SDS011;6277;49.824;9.562;2023-04-03T15:26:54;1.98;;;1.10;;
12425;SDS011;6277;49.824;9.562;2023-04-03T15:29:20;1.52;;;0.90;;
12425;SDS011;6277;49.824;9.562;2023-04-03T15:31:45;1.75;;;0.82;;
12425;SDS011;6277;49.824;9.562;2023-04-03T15:34:11;1.10;;;0.80;;
12425;SDS011;6277;49.824;9.562;2023-04-03T15:36:36;2.45;;;1.00;;
12425;SDS011;6277;49.824;9.562;2023-04-03T15:39:02;1.38;;;0.85;;
12425;SDS011;6277;49.824;9.562;2023-04-03T15:41:28;1.65;;;0.80;;
12425;SDS011;6277;49.824;9.562;2023-04-03T15:43:53;1.58;;;0.75;;
12425;SDS011;6277;49.824;9.562;2023-04-03T15:46:19;3.10;;;0.80;;
12425;SDS011;6277;49.824;9.562;2023-04-03T15:48:44;1.77;;;0.90;;
12425;SDS011;6277;49.824;9.562;2023-04-03T15:51:10;0.90;;;0.70;;
12425;SDS011;6277;49.824;9.562;2023-04-03T15:53:36;2.33;;;0.60;;
12425;SDS011;6277;49.824;9.562;2023-04-03T15:56:01;1.30;;;0.90;;
12425;SDS011;6277;49.824;9.562;2023-04-03T15:58:27;1.35;;;0.75;;
12425;SDS011;6277;49.824;9.562;2023-04-03T16:00:52;1.52;;;0.88;;
12425;SDS011;6277;49.824;9.562;2023-04-03T16:03:18;2.70;;;0.80;;
12425;SDS011;6277;49.824;9.562;2023-04-03T16:05:46;1.67;;;1.10;;
12425;SDS011;6277;49.824;9.562;2023-04-03T16:08:12;1.48;;;0.77;;
12425;SDS011;6277;49.824;9.562;2023-04-03T16:10:39;1.65;;;1.02;;
12425;SDS011;6277;49.824;9.562;2023-04-03T16:13:05;2.58;;;0.90;;
12425;SDS011;6277;49.824;9.562;2023-04-03T16:15:31;1.25;;;0.80;;
12425;SDS011;6277;49.824;9.562;2023-04-03T16:17:58;1.50;;;0.70;;
12425;SDS011;6277;49.824;9.562;2023-04-03T16:20:24;1.52;;;0.70;;
12425;SDS011;6277;49.824;9.562;2023-04-03T16:22:50;1.77;;;0.70;;
12425;SDS011;6277;49.824;9.562;2023-04-03T16:25:16;2.05;;;1.15;;
12425;SDS011;6277;49.824;9.562;2023-04-03T16:27:42;2.03;;;0.98;;
12425;SDS011;6277;49.824;9.562;2023-04-03T16:30:08;1.30;;;0.90;;
12425;SDS011;6277;49.824;9.562;2023-04-03T16:32:35;2.15;;;0.80;;
12425;SDS011;6277;49.824;9.562;2023-04-03T16:35:01;1.90;;;0.68;;
12425;SDS011;6277;49.824;9.562;2023-04-03T16:37:27;1.15;;;0.68;;
12425;SDS011;6277;49.824;9.562;2023-04-03T16:39:53;1.15;;;0.52;;
12425;SDS011;6277;49.824;9.562;2023-04-03T16:42:18;1.45;;;0.70;;
12425;SDS011;6277;49.824;9.562;2023-04-03T16:44:44;1.17;;;0.57;;
12425;SDS011;6277;49.824;9.562;2023-04-03T16:47:10;1.20;;;0.60;;